createdAt,value
2023-01-25T00:00:31.512Z,101505.78
2023-01-25T00:02:59.214Z,101506.59
2023-01-25T00:05:26.111Z,101499.66
2023-01-25T00:07:53.029Z,101496.50
2023-01-25T00:10:20.268Z,101491.38
2023-01-25T00:12:47.260Z,101494.03
2023-01-25T00:15:14.683Z,101495.56
2023-01-25T00:17:41.795Z,101488.72
2023-01-25T00:20:09.805Z,101497.25
2023-01-25T00:22:36.710Z,101493.75
2023-01-25T00:25:03.766Z,101491.91
2023-01-25T00:27:30.747Z,101481.06
2023-01-25T00:29:57.679Z,101477.00
2023-01-25T00:32:47.909Z,101473.69
2023-01-25T00:35:15.396Z,101474.47
2023-01-25T00:37:50.112Z,101465.91
2023-01-25T00:40:18.283Z,101460.00
2023-01-25T00:42:45.249Z,101460.66
2023-01-25T00:45:13.313Z,101455.56
2023-01-25T00:47:40.464Z,101460.63
2023-01-25T00:50:08.513Z,101454.50
2023-01-25T00:52:35.730Z,101453.56
2023-01-25T00:55:03.627Z,101457.78
2023-01-25T00:57:31.260Z,101445.16
2023-01-25T00:59:58.213Z,101443.72
2023-01-25T01:02:25.068Z,101435.72
2023-01-25T01:04:53.654Z,101429.81
2023-01-25T01:07:20.540Z,101437.78
2023-01-25T01:09:47.464Z,101445.44
2023-01-25T01:12:14.407Z,101439.22
2023-01-25T01:14:42.318Z,101436.81
2023-01-25T01:17:09.155Z,101445.44
2023-01-25T01:19:36.119Z,101436.03
2023-01-25T01:22:03.014Z,101431.97
2023-01-25T01:24:30.076Z,101441.06
2023-01-25T01:26:57.171Z,101437.44
2023-01-25T01:29:24.234Z,101426.13
2023-01-25T01:31:52.723Z,101420.13
2023-01-25T01:34:23.275Z,101414.28
2023-01-25T01:36:50.493Z,101413.47
2023-01-25T01:39:17.682Z,101413.72
2023-01-25T01:41:44.681Z,101409.50
2023-01-25T01:44:22.769Z,101407.91
2023-01-25T01:46:59.773Z,101412.72
2023-01-25T01:49:32.891Z,101410.00
2023-01-25T01:52:16.090Z,101398.84
2023-01-25T01:55:03.733Z,101399.59
2023-01-25T01:57:44.908Z,101396.22
2023-01-25T02:00:13.596Z,101392.94
2023-01-25T02:02:42.306Z,101388.72
2023-01-25T02:05:20.035Z,101391.31
2023-01-25T02:07:49.891Z,101388.06
2023-01-25T02:10:21.995Z,101393.16
2023-01-25T02:12:53.073Z,101390.84
2023-01-25T02:15:20.182Z,101388.06
2023-01-25T02:17:49.922Z,101399.97
2023-01-25T02:20:25.666Z,101402.53
2023-01-25T02:22:52.454Z,101398.25
2023-01-25T02:25:19.765Z,101398.94
2023-01-25T02:27:53.605Z,101403.34
2023-01-25T02:30:20.899Z,101398.09
2023-01-25T02:32:47.790Z,101395.59
2023-01-25T02:35:20.019Z,101393.13
2023-01-25T02:37:46.991Z,101398.94
2023-01-25T02:40:13.905Z,101398.97
2023-01-25T02:42:43.964Z,101408.22
2023-01-25T02:45:16.636Z,101397.00
2023-01-25T02:47:43.558Z,101408.31
2023-01-25T02:50:11.091Z,101398.88
2023-01-25T02:52:38.175Z,101403.28
2023-01-25T02:55:06.123Z,101402.25
2023-01-25T02:57:33.245Z,101408.13
2023-01-25T03:00:00.177Z,101407.97
2023-01-25T03:02:28.655Z,101411.41
2023-01-25T03:04:55.650Z,101405.59
2023-01-25T03:07:22.710Z,101414.09
2023-01-25T03:09:50.088Z,101413.28
2023-01-25T03:12:16.991Z,101403.84
2023-01-25T03:14:44.967Z,101401.53
2023-01-25T03:17:11.948Z,101398.78
2023-01-25T03:19:38.975Z,101384.25
2023-01-25T03:22:06.978Z,101382.56
2023-01-25T03:24:33.896Z,101377.25
2023-01-25T03:27:18.549Z,101368.66
2023-01-25T03:30:02.069Z,101370.38
2023-01-25T03:32:32.427Z,101378.78
2023-01-25T03:35:05.623Z,101372.81
2023-01-25T03:37:34.507Z,101377.91
2023-01-25T03:40:01.669Z,101374.47
2023-01-25T03:42:30.760Z,101379.56
2023-01-25T03:44:58.921Z,101378.72
2023-01-25T03:47:26.350Z,101368.09
2023-01-25T03:49:53.444Z,101383.25
2023-01-25T03:52:20.474Z,101377.50
2023-01-25T03:55:19.817Z,101378.22
2023-01-25T03:57:49.210Z,101373.13
2023-01-25T04:00:17.308Z,101377.31
2023-01-25T04:02:48.204Z,101379.09
2023-01-25T04:05:18.688Z,101369.72
2023-01-25T04:07:45.660Z,101372.41
2023-01-25T04:10:13.577Z,101377.41
2023-01-25T04:12:44.622Z,101377.31
2023-01-25T04:15:11.866Z,101381.47
2023-01-25T04:17:39.855Z,101352.72
2023-01-25T04:20:17.836Z,101375.88
2023-01-25T04:22:45.076Z,101379.94
2023-01-25T04:25:12.246Z,101375.88
2023-01-25T04:27:44.749Z,101370.16
2023-01-25T04:30:15.406Z,101375.31
2023-01-25T04:32:44.534Z,101373.09
2023-01-25T04:35:32.041Z,101380.44
2023-01-25T04:38:00.620Z,101375.44
2023-01-25T04:40:34.906Z,101378.78
2023-01-25T04:43:01.839Z,101385.09
2023-01-25T04:45:30.576Z,101388.56
2023-01-25T04:47:59.938Z,101388.38
2023-01-25T04:50:28.281Z,101381.69
2023-01-25T04:52:56.214Z,101382.78
2023-01-25T04:55:24.189Z,101387.13
2023-01-25T04:57:52.740Z,101391.41
2023-01-25T05:00:20.916Z,101388.66
2023-01-25T05:02:49.451Z,101387.97
2023-01-25T05:05:16.724Z,101386.44
2023-01-25T05:07:46.221Z,101387.09
2023-01-25T05:10:14.090Z,101380.66
2023-01-25T05:12:55.343Z,101377.41
2023-01-25T05:15:22.437Z,101379.13
2023-01-25T05:17:49.354Z,101382.44
2023-01-25T05:20:16.516Z,101381.13
2023-01-25T05:22:43.395Z,101371.56
2023-01-25T05:25:30.264Z,101376.97
2023-01-25T05:27:57.455Z,101395.78
2023-01-25T05:30:50.381Z,101388.22
2023-01-25T05:33:24.235Z,101389.84
2023-01-25T05:35:51.126Z,101401.06
2023-01-25T05:38:18.289Z,101401.94
2023-01-25T05:40:45.304Z,101397.47
2023-01-25T05:43:12.723Z,101400.72
2023-01-25T05:45:40.417Z,101383.44
2023-01-25T05:48:08.420Z,101375.81
2023-01-25T05:50:35.762Z,101377.34
2023-01-25T05:53:11.121Z,101374.03
2023-01-25T05:55:39.119Z,101366.00
2023-01-25T05:58:15.822Z,101381.41
2023-01-25T06:00:43.397Z,101363.34
2023-01-25T06:03:18.319Z,101365.59
2023-01-25T06:05:45.737Z,101372.03
2023-01-25T06:08:12.786Z,101381.44
2023-01-25T06:10:51.378Z,101378.00
2023-01-25T06:13:18.984Z,101382.34
2023-01-25T06:15:54.256Z,101385.59
2023-01-25T06:18:39.812Z,101385.28
2023-01-25T06:21:37.217Z,101385.59
2023-01-25T06:24:05.171Z,101388.06
2023-01-25T06:26:32.250Z,101387.34
2023-01-25T06:28:59.304Z,101380.44
2023-01-25T06:31:26.387Z,101380.91
2023-01-25T06:33:53.642Z,101377.13
2023-01-25T06:36:23.038Z,101378.16
2023-01-25T06:38:51.906Z,101379.78
2023-01-25T06:41:20.130Z,101381.13
2023-01-25T06:43:48.209Z,101390.50
2023-01-25T06:46:15.760Z,101388.13
2023-01-25T06:48:45.692Z,101388.09
2023-01-25T06:51:14.053Z,101385.31
2023-01-25T06:53:43.616Z,101391.78
2023-01-25T06:56:12.986Z,101379.34
2023-01-25T06:58:40.548Z,101390.00
2023-01-25T07:01:30.632Z,101385.13
2023-01-25T07:03:59.466Z,101394.56
2023-01-25T07:06:33.381Z,101391.19
2023-01-25T07:09:12.854Z,101384.44
2023-01-25T07:11:39.881Z,101386.69
2023-01-25T07:14:07.089Z,101391.72
2023-01-25T07:16:36.869Z,101384.03
2023-01-25T07:19:05.730Z,101384.00
2023-01-25T07:21:33.314Z,101378.53
2023-01-25T07:24:05.162Z,101371.63
2023-01-25T07:26:33.014Z,101376.19
2023-01-25T07:29:00.553Z,101374.06
2023-01-25T07:31:28.524Z,101355.09
2023-01-25T07:33:57.387Z,101364.81
2023-01-25T07:36:25.552Z,101367.44
2023-01-25T07:38:57.280Z,101373.06
2023-01-25T07:41:25.435Z,101374.50
2023-01-25T07:43:53.983Z,101371.81
2023-01-25T07:46:50.081Z,101374.38
2023-01-25T07:49:17.041Z,101376.88
2023-01-25T07:51:44.283Z,101366.81
2023-01-25T07:54:12.371Z,101365.59
2023-01-25T07:56:40.699Z,101367.97
2023-01-25T07:59:10.394Z,101363.34
2023-01-25T08:01:39.029Z,101367.44
2023-01-25T08:04:06.036Z,101364.16
2023-01-25T08:06:38.411Z,101369.41
2023-01-25T08:09:15.033Z,101361.75
2023-01-25T08:11:42.310Z,101365.84
2023-01-25T08:14:09.753Z,101364.03
2023-01-25T08:16:36.679Z,101370.69
2023-01-25T08:19:04.190Z,101364.16
2023-01-25T08:21:33.949Z,101364.75
2023-01-25T08:24:04.033Z,101368.06
2023-01-25T08:26:31.242Z,101373.59
2023-01-25T08:28:58.639Z,101366.50
2023-01-25T08:31:28.594Z,101367.94
2023-01-25T08:33:56.330Z,101357.00
2023-01-25T08:36:28.345Z,101362.59
2023-01-25T08:39:04.633Z,101350.13
2023-01-25T08:41:33.624Z,101361.94
2023-01-25T08:44:00.833Z,101351.28
2023-01-25T08:46:31.601Z,101347.59
2023-01-25T08:49:00.843Z,101335.53
2023-01-25T08:51:28.246Z,101337.91
2023-01-25T08:53:55.235Z,101339.75
2023-01-25T08:56:22.218Z,101329.16
2023-01-25T08:58:50.245Z,101326.06
2023-01-25T09:01:19.320Z,101316.97
2023-01-25T09:03:49.292Z,101319.34
2023-01-25T09:06:17.570Z,101324.00
2023-01-25T09:08:44.730Z,101316.97
2023-01-25T09:11:14.306Z,101316.22
2023-01-25T09:13:44.376Z,101304.50
2023-01-25T09:16:13.932Z,101306.47
2023-01-25T09:18:42.295Z,101306.00
2023-01-25T09:21:10.085Z,101303.38
2023-01-25T09:23:50.565Z,101301.31
2023-01-25T09:26:24.866Z,101296.44
2023-01-25T09:28:54.154Z,101292.53
2023-01-25T09:31:25.316Z,101289.88
2023-01-25T09:34:02.641Z,101289.88
2023-01-25T09:36:29.629Z,101279.13
2023-01-25T09:38:57.191Z,101280.56
2023-01-25T09:41:51.954Z,101270.06
2023-01-25T09:44:31.647Z,101269.72
2023-01-25T09:47:10.316Z,101266.69
2023-01-25T09:50:04.492Z,101254.63
2023-01-25T09:52:57.508Z,101249.88
2023-01-25T09:55:27.915Z,101248.53
2023-01-25T09:57:57.014Z,101244.59
2023-01-25T10:00:30.279Z,101242.28
2023-01-25T10:03:13.866Z,101234.59
2023-01-25T10:05:48.660Z,101236.03
2023-01-25T10:08:21.554Z,101229.16
2023-01-25T10:10:55.933Z,101228.78
2023-01-25T10:13:24.391Z,101224.03
2023-01-25T10:15:56.034Z,101217.59
2023-01-25T10:18:32.021Z,101215.84
2023-01-25T10:21:13.925Z,101233.41
2023-01-25T10:23:40.741Z,101227.34
2023-01-25T10:26:33.177Z,101225.75
2023-01-25T10:29:21.629Z,101214.22
2023-01-25T10:31:50.625Z,101221.63
2023-01-25T10:34:24.424Z,101219.63
2023-01-25T10:36:55.555Z,101224.81
2023-01-25T10:39:22.589Z,101215.88
2023-01-25T10:41:56.847Z,101215.50
2023-01-25T10:44:26.234Z,101211.13
2023-01-25T10:46:53.229Z,101201.03
2023-01-25T10:49:49.161Z,101199.97
2023-01-25T10:52:24.723Z,101208.34
2023-01-25T10:55:16.254Z,101200.72
2023-01-25T10:57:55.614Z,101189.28
2023-01-25T11:00:30.793Z,101174.97
2023-01-25T11:02:58.065Z,101175.44
2023-01-25T11:05:29.340Z,101181.72
2023-01-25T11:07:57.069Z,101176.50
2023-01-25T11:10:29.929Z,101179.72
2023-01-25T11:13:20.943Z,101175.31
2023-01-25T11:16:11.871Z,101173.34
2023-01-25T11:18:51.109Z,101173.97
2023-01-25T11:21:23.361Z,101170.06
2023-01-25T11:24:05.476Z,101165.88
2023-01-25T11:26:34.482Z,101162.84
2023-01-25T11:29:16.328Z,101161.75
2023-01-25T11:31:50.030Z,101153.88
2023-01-25T11:34:19.637Z,101156.72
2023-01-25T11:37:34.141Z,101151.09
2023-01-25T11:40:33.530Z,101152.06
2023-01-25T11:43:11.827Z,101143.50
2023-01-25T11:45:38.734Z,101136.25
2023-01-25T11:48:11.687Z,101132.22
2023-01-25T11:50:42.352Z,101130.41
2023-01-25T11:53:24.492Z,101138.38
2023-01-25T11:56:02.091Z,101136.72
2023-01-25T11:58:57.276Z,101137.75
2023-01-25T12:01:42.979Z,101135.88
2023-01-25T12:04:38.673Z,101143.47
2023-01-25T12:07:34.822Z,101137.94
2023-01-25T12:10:26.384Z,101135.34
2023-01-25T12:13:11.883Z,101139.13
2023-01-25T12:15:48.010Z,101139.78
2023-01-25T12:18:56.951Z,101121.16
2023-01-25T12:21:41.966Z,101128.78
2023-01-25T12:24:11.752Z,101113.34
2023-01-25T12:26:58.247Z,101125.59
2023-01-25T12:29:38.102Z,101127.16
2023-01-25T12:32:11.090Z,101123.41
2023-01-25T12:34:40.933Z,101122.31
2023-01-25T12:37:24.817Z,101119.91
2023-01-25T12:40:01.773Z,101114.38
2023-01-25T12:42:37.861Z,101112.84
2023-01-25T12:45:22.871Z,101088.47
2023-01-25T12:47:53.537Z,101101.09
2023-01-25T12:50:27.622Z,101098.41
2023-01-25T12:52:59.790Z,101087.28
2023-01-25T12:55:27.673Z,101088.25
2023-01-25T12:58:39.183Z,101094.50
2023-01-25T13:01:21.133Z,101094.84
2023-01-25T13:03:56.939Z,101096.47
2023-01-25T13:06:50.126Z,101095.28
2023-01-25T13:09:30.082Z,101096.22
2023-01-25T13:11:57.148Z,101090.97
2023-01-25T13:14:30.341Z,101086.13
2023-01-25T13:17:28.250Z,101079.81
2023-01-25T13:19:55.031Z,101083.41
2023-01-25T13:22:43.896Z,101071.00
2023-01-25T13:25:16.904Z,101069.00
2023-01-25T13:27:44.186Z,101063.44
2023-01-25T13:30:34.386Z,101063.94
2023-01-25T13:33:04.444Z,101056.69
2023-01-25T13:35:36.907Z,101041.84
2023-01-25T13:38:17.486Z,101033.09
2023-01-25T13:40:44.766Z,101035.09
2023-01-25T13:43:25.481Z,101033.41
2023-01-25T13:46:14.293Z,101026.34
2023-01-25T13:49:01.841Z,101016.19
2023-01-25T13:51:33.854Z,101018.16
2023-01-25T13:54:00.898Z,101008.88
2023-01-25T13:56:33.786Z,101002.69
2023-01-25T13:59:01.701Z,100999.56
2023-01-25T14:01:31.583Z,100994.72
2023-01-25T14:04:02.574Z,100991.06
2023-01-25T14:06:34.120Z,100990.38
2023-01-25T14:09:07.640Z,100989.63
2023-01-25T14:11:39.970Z,100991.78
2023-01-25T14:14:27.110Z,100995.38
2023-01-25T14:17:09.676Z,100995.25
2023-01-25T14:19:41.289Z,101004.94
2023-01-25T14:22:13.087Z,100989.63
2023-01-25T14:24:40.604Z,100994.41
2023-01-25T14:27:14.330Z,101000.31
2023-01-25T14:29:41.851Z,100995.94
2023-01-25T14:32:18.268Z,100993.94
2023-01-25T14:34:45.234Z,100994.00
2023-01-25T14:37:17.980Z,100987.09
2023-01-25T14:39:46.177Z,100983.97
2023-01-25T14:42:13.852Z,100981.47
2023-01-25T14:44:41.410Z,100995.38
2023-01-25T14:47:30.414Z,100999.34
2023-01-25T14:50:34.501Z,100989.84
2023-01-25T14:53:16.160Z,100988.56
2023-01-25T14:55:48.210Z,100990.66
2023-01-25T14:58:21.461Z,100984.97
2023-01-25T15:00:57.788Z,100990.91
2023-01-25T15:03:26.890Z,101000.78
2023-01-25T15:05:55.118Z,100995.63
2023-01-25T15:08:38.551Z,101006.56
2023-01-25T15:11:32.190Z,100995.63
2023-01-25T15:14:03.203Z,100999.78
2023-01-25T15:16:34.994Z,100994.91
2023-01-25T15:19:02.972Z,100992.50
2023-01-25T15:21:32.326Z,100983.28
2023-01-25T15:24:06.911Z,100988.38
2023-01-25T15:26:36.216Z,100975.19
2023-01-25T15:29:15.953Z,100968.88
2023-01-25T15:31:43.670Z,100961.41
2023-01-25T15:34:25.101Z,100964.59
2023-01-25T15:36:52.494Z,100962.91
2023-01-25T15:39:20.443Z,100970.53
2023-01-25T15:41:48.710Z,100967.75
2023-01-25T15:44:17.597Z,100977.84
2023-01-25T15:46:48.768Z,100961.38
2023-01-25T15:49:27.589Z,100958.75
2023-01-25T15:51:56.179Z,100952.69
2023-01-25T15:54:24.438Z,100955.28
2023-01-25T15:56:56.274Z,100951.91
2023-01-25T15:59:23.428Z,100946.88
2023-01-25T16:01:50.354Z,100946.88
2023-01-25T16:04:17.321Z,100944.56
2023-01-25T16:06:52.674Z,100944.41
2023-01-25T16:09:29.587Z,100944.97
2023-01-25T16:12:00.647Z,100950.28
2023-01-25T16:14:30.358Z,100945.91
2023-01-25T16:17:03.131Z,100950.22
2023-01-25T16:19:30.675Z,100948.56
2023-01-25T16:21:58.092Z,100950.81
2023-01-25T16:24:25.278Z,100949.41
2023-01-25T16:26:57.201Z,100939.09
2023-01-25T16:29:24.613Z,100939.66
2023-01-25T16:31:53.221Z,100931.56
2023-01-25T16:34:21.251Z,100923.44
2023-01-25T16:36:53.035Z,100927.53
2023-01-25T16:39:22.552Z,100916.72
2023-01-25T16:41:50.152Z,100917.72
2023-01-25T16:44:17.701Z,100908.94
2023-01-25T16:46:45.081Z,100901.66
2023-01-25T16:49:26.506Z,100890.84
2023-01-25T16:51:55.062Z,100895.75
2023-01-25T16:54:23.513Z,100903.22
2023-01-25T16:56:52.027Z,100902.97
2023-01-25T16:59:19.895Z,100896.88
2023-01-25T17:01:47.312Z,100898.41
2023-01-25T17:04:15.063Z,100909.63
2023-01-25T17:06:47.876Z,100910.31
2023-01-25T17:09:23.698Z,100922.13
2023-01-25T17:11:52.041Z,100923.88
2023-01-25T17:14:20.328Z,100920.47
2023-01-25T17:16:50.458Z,100913.25
2023-01-25T17:19:18.757Z,100912.09
2023-01-25T17:21:46.428Z,100913.06
2023-01-25T17:24:16.170Z,100919.47
2023-01-25T17:26:43.356Z,100907.16
2023-01-25T17:29:10.538Z,100910.94
2023-01-25T17:31:39.808Z,100905.88
2023-01-25T17:34:08.669Z,100907.16
2023-01-25T17:36:35.802Z,100901.91
2023-01-25T17:39:05.171Z,100891.00
2023-01-25T17:41:32.191Z,100884.28
2023-01-25T17:43:59.543Z,100896.97
2023-01-25T17:46:33.462Z,100897.69
2023-01-25T17:49:02.388Z,100887.72
2023-01-25T17:51:31.323Z,100892.16
2023-01-25T17:53:58.480Z,100887.66
2023-01-25T17:56:26.702Z,100882.50
2023-01-25T17:58:54.537Z,100878.03
2023-01-25T18:01:24.526Z,100880.88
2023-01-25T18:03:53.839Z,100871.34
2023-01-25T18:06:31.430Z,100880.88
2023-01-25T18:09:01.698Z,100887.25
2023-01-25T18:11:34.150Z,100894.22
2023-01-25T18:14:09.465Z,100898.66
2023-01-25T18:16:38.913Z,100886.66
2023-01-25T18:19:06.279Z,100890.84
2023-01-25T18:21:33.994Z,100883.72
2023-01-25T18:24:05.291Z,100875.38
2023-01-25T18:26:35.696Z,100873.63
2023-01-25T18:29:08.789Z,100863.63
2023-01-25T18:31:36.378Z,100869.56
2023-01-25T18:34:03.372Z,100852.72
2023-01-25T18:36:30.418Z,100860.97
2023-01-25T18:38:58.356Z,100866.53
2023-01-25T18:41:25.239Z,100854.09
2023-01-25T18:43:52.310Z,100858.44
2023-01-25T18:46:19.621Z,100849.41
2023-01-25T18:48:47.368Z,100850.88
2023-01-25T18:51:17.836Z,100858.63
2023-01-25T18:53:47.710Z,100845.97
2023-01-25T18:56:19.515Z,100849.00
2023-01-25T18:58:47.208Z,100841.56
2023-01-25T19:01:18.026Z,100840.97
2023-01-25T19:03:47.803Z,100838.50
2023-01-25T19:06:15.983Z,100841.63
2023-01-25T19:08:46.536Z,100838.84
2023-01-25T19:11:16.341Z,100832.78
2023-01-25T19:13:44.407Z,100833.84
2023-01-25T19:16:19.989Z,100831.66
2023-01-25T19:18:50.512Z,100830.47
2023-01-25T19:21:24.048Z,100815.06
2023-01-25T19:23:52.144Z,100810.91
2023-01-25T19:26:20.783Z,100810.91
2023-01-25T19:28:48.451Z,100808.66
2023-01-25T19:31:18.060Z,100809.47
2023-01-25T19:33:45.655Z,100804.53
2023-01-25T19:36:19.316Z,100797.75
2023-01-25T19:38:48.168Z,100811.16
2023-01-25T19:41:24.568Z,100799.91
2023-01-25T19:43:55.999Z,100811.53
2023-01-25T19:46:27.011Z,100813.19
2023-01-25T19:48:54.879Z,100801.25
2023-01-25T19:51:27.875Z,100793.25
2023-01-25T19:54:00.799Z,100791.63
2023-01-25T19:56:33.121Z,100795.72
2023-01-25T19:59:03.418Z,100794.81
2023-01-25T20:01:30.723Z,100790.75
2023-01-25T20:03:58.972Z,100795.00
2023-01-25T20:06:27.137Z,100801.81
2023-01-25T20:08:54.783Z,100800.03
2023-01-25T20:11:25.941Z,100791.44
2023-01-25T20:13:55.100Z,100786.59
2023-01-25T20:16:22.459Z,100786.41
2023-01-25T20:18:49.982Z,100795.81
2023-01-25T20:21:20.015Z,100796.78
2023-01-25T20:23:49.741Z,100788.47
2023-01-25T20:26:20.017Z,100782.00
2023-01-25T20:28:51.691Z,100788.94
2023-01-25T20:31:21.518Z,100776.97
2023-01-25T20:33:49.832Z,100754.44
2023-01-25T20:36:20.586Z,100766.19
2023-01-25T20:38:47.643Z,100772.56
2023-01-25T20:41:17.141Z,100769.09
2023-01-25T20:43:48.971Z,100761.53
2023-01-25T20:46:17.216Z,100761.53
2023-01-25T20:48:44.671Z,100762.31
2023-01-25T20:51:14.142Z,100763.88
2023-01-25T20:53:42.256Z,100752.19
2023-01-25T20:56:10.512Z,100751.19
2023-01-25T20:58:37.901Z,100754.00
2023-01-25T21:01:12.753Z,100745.41
2023-01-25T21:03:39.829Z,100742.06
2023-01-25T21:06:07.336Z,100731.75
2023-01-25T21:08:34.491Z,100736.75
2023-01-25T21:11:01.572Z,100737.66
2023-01-25T21:13:29.574Z,100727.00
2023-01-25T21:16:07.804Z,100736.94
2023-01-25T21:18:51.872Z,100738.41
2023-01-25T21:21:21.794Z,100734.88
2023-01-25T21:23:50.315Z,100704.31
2023-01-25T21:26:23.092Z,100722.09
2023-01-25T21:28:51.853Z,100733.00
2023-01-25T21:31:39.821Z,100731.06
2023-01-25T21:34:06.964Z,100721.00
2023-01-25T21:36:33.952Z,100718.06
2023-01-25T21:39:01.425Z,100719.69
2023-01-25T21:41:30.964Z,100710.16
2023-01-25T21:44:17.658Z,100704.91
2023-01-25T21:47:00.725Z,100710.03
2023-01-25T21:49:51.253Z,100718.25
2023-01-25T21:52:18.202Z,100703.25
2023-01-25T21:54:45.180Z,100699.31
2023-01-25T21:57:12.195Z,100699.59
2023-01-25T21:59:41.128Z,100698.69
2023-01-25T22:02:13.260Z,100692.13
2023-01-25T22:04:40.747Z,100692.44
2023-01-25T22:07:09.180Z,100690.09
2023-01-25T22:09:36.286Z,100688.22
2023-01-25T22:12:03.344Z,100697.66
2023-01-25T22:14:30.391Z,100697.84
2023-01-25T22:16:57.285Z,100694.28
2023-01-25T22:19:24.510Z,100692.81
2023-01-25T22:21:51.665Z,100692.88
2023-01-25T22:24:18.678Z,100691.03
2023-01-25T22:26:45.738Z,100685.09
2023-01-25T22:29:13.010Z,100689.63
2023-01-25T22:31:40.166Z,100677.91
2023-01-25T22:34:07.437Z,100671.75
2023-01-25T22:36:34.531Z,100668.44
2023-01-25T22:39:01.628Z,100677.06
2023-01-25T22:41:31.348Z,100678.28
2023-01-25T22:43:58.491Z,100678.94
2023-01-25T22:46:27.857Z,100685.75
2023-01-25T22:48:55.154Z,100672.91
2023-01-25T22:51:25.682Z,100679.00
2023-01-25T22:53:53.976Z,100666.09
2023-01-25T22:56:23.956Z,100672.84
2023-01-25T22:58:51.843Z,100641.78
2023-01-25T23:01:20.718Z,100654.78
2023-01-25T23:03:48.739Z,100653.50
2023-01-25T23:06:18.339Z,100652.38
2023-01-25T23:08:45.948Z,100649.38
2023-01-25T23:11:19.508Z,100645.91
2023-01-25T23:14:07.841Z,100645.25
2023-01-25T23:16:35.715Z,100651.03
2023-01-25T23:19:05.020Z,100644.94
2023-01-25T23:21:32.198Z,100648.00
2023-01-25T23:24:01.014Z,100645.22
2023-01-25T23:26:29.849Z,100650.34
2023-01-25T23:28:57.933Z,100649.03
2023-01-25T23:31:26.290Z,100655.91
2023-01-25T23:33:56.883Z,100648.31
2023-01-25T23:36:27.057Z,100647.31
2023-01-25T23:38:54.983Z,100643.81
2023-01-25T23:41:23.673Z,100641.81
2023-01-25T23:43:50.945Z,100643.56
2023-01-25T23:46:18.952Z,100641.50
2023-01-25T23:48:47.092Z,100633.91
2023-01-25T23:51:16.249Z,100634.78
2023-01-25T23:53:43.906Z,100640.78
2023-01-25T23:56:17.395Z,100629.09
2023-01-25T23:58:44.938Z,100633.31
